sensor_id;sensor_type;location;lat;lon;timestamp;P1;durP1;ratioP1;P2;durP2;ratioP2
63818;SDS011;49970;54.976;73.248;2023-04-21T00:01:25;13.70;;;8.07;;
63818;SDS011;49970;54.976;73.248;2023-04-21T00:03:54;13.18;;;8.88;;
63818;SDS011;49970;54.976;73.248;2023-04-21T00:06:21;19.35;;;9.73;;
63818;SDS011;49970;54.976;73.248;2023-04-21T00:08:48;18.33;;;8.73;;
63818;SDS011;49970;54.976;73.248;2023-04-21T00:11:14;19.80;;;8.75;;
63818;SDS011;49970;54.976;73.248;2023-04-21T00:13:40;14.25;;;8.27;;
63818;SDS011;49970;54.976;73.248;2023-04-21T00:16:16;12.05;;;7.35;;
63818;SDS011;49970;54.976;73.248;2023-04-21T00:18:42;18.13;;;9.20;;
63818;SDS011;49970;54.976;73.248;2023-04-21T00:21:13;22.73;;;10.18;;
63818;SDS011;49970;54.976;73.248;2023-04-21T00:23:41;17.52;;;9.43;;
63818;SDS011;49970;54.976;73.248;2023-04-21T00:26:07;15.85;;;9.52;;
63818;SDS011;49970;54.976;73.248;2023-04-21T00:28:38;18.45;;;9.30;;
63818;SDS011;49970;54.976;73.248;2023-04-21T00:31:09;20.85;;;9.68;;
63818;SDS011;49970;54.976;73.248;2023-04-21T00:33:35;18.58;;;9.40;;
63818;SDS011;49970;54.976;73.248;2023-04-21T00:36:01;27.52;;;10.43;;
63818;SDS011;49970;54.976;73.248;2023-04-21T00:38:28;22.48;;;10.32;;
63818;SDS011;49970;54.976;73.248;2023-04-21T00:40:54;19.80;;;9.35;;
63818;SDS011;49970;54.976;73.248;2023-04-21T00:43:27;19.58;;;9.85;;
63818;SDS011;49970;54.976;73.248;2023-04-21T00:45:54;11.18;;;8.02;;
63818;SDS011;49970;54.976;73.248;2023-04-21T00:48:20;13.73;;;9.18;;
63818;SDS011;49970;54.976;73.248;2023-04-21T00:50:46;12.55;;;8.98;;
63818;SDS011;49970;54.976;73.248;2023-04-21T00:53:13;17.02;;;8.77;;
63818;SDS011;49970;54.976;73.248;2023-04-21T00:55:45;20.10;;;9.47;;
63818;SDS011;49970;54.976;73.248;2023-04-21T00:58:17;23.83;;;11.18;;
63818;SDS011;49970;54.976;73.248;2023-04-21T01:00:43;20.98;;;10.70;;
63818;SDS011;49970;54.976;73.248;2023-04-21T01:03:19;17.15;;;9.02;;
63818;SDS011;49970;54.976;73.248;2023-04-21T01:05:45;16.45;;;10.40;;
63818;SDS011;49970;54.976;73.248;2023-04-21T01:08:12;38.08;;;12.27;;
63818;SDS011;49970;54.976;73.248;2023-04-21T01:10:39;26.83;;;11.25;;
63818;SDS011;49970;54.976;73.248;2023-04-21T01:13:07;34.65;;;9.10;;
63818;SDS011;49970;54.976;73.248;2023-04-21T01:15:33;16.83;;;9.75;;
63818;SDS011;49970;54.976;73.248;2023-04-21T01:17:59;23.52;;;10.18;;
63818;SDS011;49970;54.976;73.248;2023-04-21T01:20:25;21.65;;;9.52;;
63818;SDS011;49970;54.976;73.248;2023-04-21T01:22:54;20.70;;;8.57;;
63818;SDS011;49970;54.976;73.248;2023-04-21T01:25:25;20.90;;;9.60;;
63818;SDS011;49970;54.976;73.248;2023-04-21T01:27:53;15.48;;;8.82;;
63818;SDS011;49970;54.976;73.248;2023-04-21T01:30:25;18.23;;;9.68;;
63818;SDS011;49970;54.976;73.248;2023-04-21T01:33:01;28.00;;;10.93;;
63818;SDS011;49970;54.976;73.248;2023-04-21T01:35:28;19.67;;;10.35;;
63818;SDS011;49970;54.976;73.248;2023-04-21T01:38:04;13.63;;;9.23;;
63818;SDS011;49970;54.976;73.248;2023-04-21T01:40:36;15.95;;;8.48;;
63818;SDS011;49970;54.976;73.248;2023-04-21T01:43:03;11.88;;;8.45;;
63818;SDS011;49970;54.976;73.248;2023-04-21T01:45:30;12.10;;;8.07;;
63818;SDS011;49970;54.976;73.248;2023-04-21T01:49:21;32.72;;;8.25;;
63818;SDS011;49970;54.976;73.248;2023-04-21T01:51:47;18.90;;;7.93;;
63818;SDS011;49970;54.976;73.248;2023-04-21T01:54:14;17.58;;;8.82;;
63818;SDS011;49970;54.976;73.248;2023-04-21T01:56:40;20.98;;;9.85;;
63818;SDS011;49970;54.976;73.248;2023-04-21T01:59:11;20.80;;;9.90;;
63818;SDS011;49970;54.976;73.248;2023-04-21T02:01:41;24.23;;;9.60;;
63818;SDS011;49970;54.976;73.248;2023-04-21T02:04:10;50.60;;;9.77;;
63818;SDS011;49970;54.976;73.248;2023-04-21T02:06:42;16.05;;;8.77;;
63818;SDS011;49970;54.976;73.248;2023-04-21T02:09:08;19.50;;;9.80;;
63818;SDS011;49970;54.976;73.248;2023-04-21T02:11:34;32.45;;;8.82;;
63818;SDS011;49970;54.976;73.248;2023-04-21T02:14:06;33.80;;;10.52;;
63818;SDS011;49970;54.976;73.248;2023-04-21T02:16:38;19.95;;;8.77;;
63818;SDS011;49970;54.976;73.248;2023-04-21T02:19:05;21.58;;;10.57;;
63818;SDS011;49970;54.976;73.248;2023-04-21T02:21:32;27.00;;;9.57;;
63818;SDS011;49970;54.976;73.248;2023-04-21T02:23:58;21.30;;;10.68;;
63818;SDS011;49970;54.976;73.248;2023-04-21T02:26:25;21.42;;;10.60;;
63818;SDS011;49970;54.976;73.248;2023-04-21T02:28:51;17.23;;;10.07;;
63818;SDS011;49970;54.976;73.248;2023-04-21T02:31:18;17.30;;;11.10;;
63818;SDS011;49970;54.976;73.248;2023-04-21T02:33:44;28.85;;;11.45;;
63818;SDS011;49970;54.976;73.248;2023-04-21T02:36:10;16.20;;;9.80;;
63818;SDS011;49970;54.976;73.248;2023-04-21T02:38:47;33.15;;;10.65;;
63818;SDS011;49970;54.976;73.248;2023-04-21T02:41:24;40.67;;;9.73;;
63818;SDS011;49970;54.976;73.248;2023-04-21T02:43:50;22.48;;;9.77;;
63818;SDS011;49970;54.976;73.248;2023-04-21T02:46:26;30.05;;;9.25;;
63818;SDS011;49970;54.976;73.248;2023-04-21T02:49:03;24.08;;;8.65;;
63818;SDS011;49970;54.976;73.248;2023-04-21T02:51:29;10.15;;;8.77;;
63818;SDS011;49970;54.976;73.248;2023-04-21T02:53:56;15.30;;;9.18;;
63818;SDS011;49970;54.976;73.248;2023-04-21T02:56:32;14.05;;;8.40;;
63818;SDS011;49970;54.976;73.248;2023-04-21T02:58:59;23.42;;;9.90;;
63818;SDS011;49970;54.976;73.248;2023-04-21T03:01:31;61.08;;;9.77;;
63818;SDS011;49970;54.976;73.248;2023-04-21T03:04:06;19.75;;;8.57;;
63818;SDS011;49970;54.976;73.248;2023-04-21T03:06:32;19.00;;;8.98;;
63818;SDS011;49970;54.976;73.248;2023-04-21T03:09:00;16.80;;;7.80;;
63818;SDS011;49970;54.976;73.248;2023-04-21T03:11:26;14.05;;;7.30;;
63818;SDS011;49970;54.976;73.248;2023-04-21T03:13:52;11.45;;;8.13;;
63818;SDS011;49970;54.976;73.248;2023-04-21T03:16:28;11.90;;;7.35;;
63818;SDS011;49970;54.976;73.248;2023-04-21T03:18:54;20.98;;;7.78;;
63818;SDS011;49970;54.976;73.248;2023-04-21T03:21:21;22.55;;;7.95;;
63818;SDS011;49970;54.976;73.248;2023-04-21T03:23:47;11.68;;;6.72;;
63818;SDS011;49970;54.976;73.248;2023-04-21T03:26:14;11.55;;;7.47;;
63818;SDS011;49970;54.976;73.248;2023-04-21T03:28:41;20.80;;;7.85;;
63818;SDS011;49970;54.976;73.248;2023-04-21T03:31:07;14.57;;;7.55;;
63818;SDS011;49970;54.976;73.248;2023-04-21T03:33:33;16.08;;;7.75;;
63818;SDS011;49970;54.976;73.248;2023-04-21T03:35:59;19.20;;;7.50;;
63818;SDS011;49970;54.976;73.248;2023-04-21T03:38:28;12.68;;;6.97;;
63818;SDS011;49970;54.976;73.248;2023-04-21T03:40:55;22.40;;;7.30;;
63818;SDS011;49970;54.976;73.248;2023-04-21T03:43:21;18.85;;;6.88;;
63818;SDS011;49970;54.976;73.248;2023-04-21T03:45:47;8.80;;;6.55;;
63818;SDS011;49970;54.976;73.248;2023-04-21T03:48:14;48.15;;;8.07;;
63818;SDS011;49970;54.976;73.248;2023-04-21T03:50:40;32.97;;;7.50;;
63818;SDS011;49970;54.976;73.248;2023-04-21T03:53:06;18.33;;;7.30;;
63818;SDS011;49970;54.976;73.248;2023-04-21T03:55:32;7.90;;;6.22;;
63818;SDS011;49970;54.976;73.248;2023-04-21T03:59:23;23.30;;;6.50;;
63818;SDS011;49970;54.976;73.248;2023-04-21T04:01:55;19.55;;;6.53;;
63818;SDS011;49970;54.976;73.248;2023-04-21T04:04:21;26.67;;;6.35;;
63818;SDS011;49970;54.976;73.248;2023-04-21T04:06:47;13.27;;;6.18;;
63818;SDS011;49970;54.976;73.248;2023-04-21T04:09:13;18.60;;;6.68;;
63818;SDS011;49970;54.976;73.248;2023-04-21T04:11:40;17.23;;;7.72;;
63818;SDS011;49970;54.976;73.248;2023-04-21T04:14:06;8.95;;;6.03;;
63818;SDS011;49970;54.976;73.248;2023-04-21T04:16:33;18.25;;;5.88;;
63818;SDS011;49970;54.976;73.248;2023-04-21T04:19:00;10.02;;;5.78;;
63818;SDS011;49970;54.976;73.248;2023-04-21T04:21:31;19.42;;;5.82;;
63818;SDS011;49970;54.976;73.248;2023-04-21T04:24:03;9.50;;;5.90;;
63818;SDS011;49970;54.976;73.248;2023-04-21T04:26:33;11.88;;;5.38;;
63818;SDS011;49970;54.976;73.248;2023-04-21T04:29:00;22.25;;;5.82;;
63818;SDS011;49970;54.976;73.248;2023-04-21T04:31:29;21.70;;;5.47;;
63818;SDS011;49970;54.976;73.248;2023-04-21T04:33:56;6.40;;;4.47;;
63818;SDS011;49970;54.976;73.248;2023-04-21T04:36:23;9.40;;;5.22;;
63818;SDS011;49970;54.976;73.248;2023-04-21T04:38:54;7.07;;;4.88;;
63818;SDS011;49970;54.976;73.248;2023-04-21T04:41:21;18.80;;;4.78;;
63818;SDS011;49970;54.976;73.248;2023-04-21T04:43:47;23.73;;;5.60;;
63818;SDS011;49970;54.976;73.248;2023-04-21T04:46:13;11.27;;;5.90;;
63818;SDS011;49970;54.976;73.248;2023-04-21T04:48:40;25.73;;;5.68;;
63818;SDS011;49970;54.976;73.248;2023-04-21T04:51:06;10.65;;;5.30;;
63818;SDS011;49970;54.976;73.248;2023-04-21T04:53:33;43.70;;;7.28;;
63818;SDS011;49970;54.976;73.248;2023-04-21T04:55:59;12.93;;;5.70;;
63818;SDS011;49970;54.976;73.248;2023-04-21T04:58:30;17.15;;;6.13;;
63818;SDS011;49970;54.976;73.248;2023-04-21T05:00:56;8.63;;;6.10;;
63818;SDS011;49970;54.976;73.248;2023-04-21T05:03:22;10.70;;;6.40;;
63818;SDS011;49970;54.976;73.248;2023-04-21T05:05:55;15.13;;;7.55;;
63818;SDS011;49970;54.976;73.248;2023-04-21T05:08:22;70.47;;;8.40;;
63818;SDS011;49970;54.976;73.248;2023-04-21T05:10:48;22.10;;;6.60;;
63818;SDS011;49970;54.976;73.248;2023-04-21T05:13:19;10.02;;;5.70;;
63818;SDS011;49970;54.976;73.248;2023-04-21T05:15:45;15.02;;;5.82;;
63818;SDS011;49970;54.976;73.248;2023-04-21T05:18:11;9.00;;;5.40;;
63818;SDS011;49970;54.976;73.248;2023-04-21T05:20:41;20.65;;;5.95;;
63818;SDS011;49970;54.976;73.248;2023-04-21T05:23:07;13.35;;;6.40;;
63818;SDS011;49970;54.976;73.248;2023-04-21T05:25:33;11.65;;;6.13;;
63818;SDS011;49970;54.976;73.248;2023-04-21T05:28:00;8.00;;;5.93;;
63818;SDS011;49970;54.976;73.248;2023-04-21T05:30:26;19.92;;;6.13;;
63818;SDS011;49970;54.976;73.248;2023-04-21T05:32:52;13.88;;;5.10;;
63818;SDS011;49970;54.976;73.248;2023-04-21T05:35:24;6.93;;;6.18;;
63818;SDS011;49970;54.976;73.248;2023-04-21T05:37:51;11.57;;;6.63;;
63818;SDS011;49970;54.976;73.248;2023-04-21T05:40:17;10.25;;;5.22;;
63818;SDS011;49970;54.976;73.248;2023-04-21T05:42:43;21.23;;;6.97;;
63818;SDS011;49970;54.976;73.248;2023-04-21T05:46:15;9.00;;;5.97;;
63818;SDS011;49970;54.976;73.248;2023-04-21T05:48:52;8.57;;;5.93;;
63818;SDS011;49970;54.976;73.248;2023-04-21T05:51:22;22.63;;;5.55;;
63818;SDS011;49970;54.976;73.248;2023-04-21T05:53:55;15.07;;;5.85;;
63818;SDS011;49970;54.976;73.248;2023-04-21T05:56:26;18.10;;;5.05;;
63818;SDS011;49970;54.976;73.248;2023-04-21T05:58:59;20.85;;;5.20;;
63818;SDS011;49970;54.976;73.248;2023-04-21T06:01:30;14.75;;;5.35;;
63818;SDS011;49970;54.976;73.248;2023-04-21T06:04:04;18.92;;;6.25;;
63818;SDS011;49970;54.976;73.248;2023-04-21T06:06:36;17.77;;;6.72;;
63818;SDS011;49970;54.976;73.248;2023-04-21T06:09:04;13.63;;;7.57;;
63818;SDS011;49970;54.976;73.248;2023-04-21T06:11:35;12.30;;;6.90;;
63818;SDS011;49970;54.976;73.248;2023-04-21T06:14:07;9.30;;;5.05;;
63818;SDS011;49970;54.976;73.248;2023-04-21T06:16:37;7.47;;;5.50;;
63818;SDS011;49970;54.976;73.248;2023-04-21T06:19:08;7.97;;;4.90;;
63818;SDS011;49970;54.976;73.248;2023-04-21T06:22:58;15.48;;;4.93;;
63818;SDS011;49970;54.976;73.248;2023-04-21T06:26:47;20.67;;;4.53;;
63818;SDS011;49970;54.976;73.248;2023-04-21T06:30:41;48.72;;;5.97;;
63818;SDS011;49970;54.976;73.248;2023-04-21T06:37:03;12.02;;;5.32;;
63818;SDS011;49970;54.976;73.248;2023-04-21T06:39:30;14.63;;;5.07;;
63818;SDS011;49970;54.976;73.248;2023-04-21T06:41:56;16.10;;;4.47;;
63818;SDS011;49970;54.976;73.248;2023-04-21T06:44:25;19.23;;;4.32;;
63818;SDS011;49970;54.976;73.248;2023-04-21T06:46:51;13.48;;;5.15;;
63818;SDS011;49970;54.976;73.248;2023-04-21T06:49:19;7.18;;;4.13;;
63818;SDS011;49970;54.976;73.248;2023-04-21T06:51:45;7.32;;;4.68;;
63818;SDS011;49970;54.976;73.248;2023-04-21T06:54:12;7.78;;;4.47;;
63818;SDS011;49970;54.976;73.248;2023-04-21T06:56:38;10.75;;;4.35;;
63818;SDS011;49970;54.976;73.248;2023-04-21T06:59:15;12.52;;;3.83;;
63818;SDS011;49970;54.976;73.248;2023-04-21T07:01:41;30.58;;;3.95;;
63818;SDS011;49970;54.976;73.248;2023-04-21T07:04:19;4.55;;;3.50;;
63818;SDS011;49970;54.976;73.248;2023-04-21T07:06:45;3.78;;;2.80;;
63818;SDS011;49970;54.976;73.248;2023-04-21T07:09:13;7.80;;;3.35;;
63818;SDS011;49970;54.976;73.248;2023-04-21T07:11:40;3.97;;;3.25;;
63818;SDS011;49970;54.976;73.248;2023-04-21T07:14:11;20.30;;;3.50;;
63818;SDS011;49970;54.976;73.248;2023-04-21T07:16:37;6.85;;;3.15;;
63818;SDS011;49970;54.976;73.248;2023-04-21T07:19:03;5.88;;;2.90;;
63818;SDS011;49970;54.976;73.248;2023-04-21T07:21:29;4.00;;;2.67;;
63818;SDS011;49970;54.976;73.248;2023-04-21T07:23:56;40.92;;;3.75;;
63818;SDS011;49970;54.976;73.248;2023-04-21T07:26:23;6.68;;;2.33;;
63818;SDS011;49970;54.976;73.248;2023-04-21T07:28:49;4.05;;;2.22;;
63818;SDS011;49970;54.976;73.248;2023-04-21T07:31:17;2.55;;;2.33;;
63818;SDS011;49970;54.976;73.248;2023-04-21T07:33:47;11.77;;;2.38;;
63818;SDS011;49970;54.976;73.248;2023-04-21T07:36:13;2.58;;;2.38;;
63818;SDS011;49970;54.976;73.248;2023-04-21T07:38:43;8.90;;;2.42;;
63818;SDS011;49970;54.976;73.248;2023-04-21T07:41:10;19.67;;;2.65;;
63818;SDS011;49970;54.976;73.248;2023-04-21T07:43:37;12.40;;;1.73;;
63818;SDS011;49970;54.976;73.248;2023-04-21T07:46:10;8.60;;;2.97;;
63818;SDS011;49970;54.976;73.248;2023-04-21T07:48:47;11.60;;;2.15;;
63818;SDS011;49970;54.976;73.248;2023-04-21T07:51:14;12.95;;;2.30;;
63818;SDS011;49970;54.976;73.248;2023-04-21T07:53:42;6.63;;;2.33;;
63818;SDS011;49970;54.976;73.248;2023-04-21T07:56:09;5.28;;;1.88;;
63818;SDS011;49970;54.976;73.248;2023-04-21T07:58:37;10.13;;;2.38;;
63818;SDS011;49970;54.976;73.248;2023-04-21T08:01:03;14.95;;;2.10;;
63818;SDS011;49970;54.976;73.248;2023-04-21T08:03:30;16.60;;;2.10;;
63818;SDS011;49970;54.976;73.248;2023-04-21T08:05:56;7.15;;;1.98;;
63818;SDS011;49970;54.976;73.248;2023-04-21T08:08:32;16.58;;;2.47;;
63818;SDS011;49970;54.976;73.248;2023-04-21T08:12:14;7.93;;;1.70;;
63818;SDS011;49970;54.976;73.248;2023-04-21T08:14:41;3.70;;;1.73;;
63818;SDS011;49970;54.976;73.248;2023-04-21T08:17:07;5.45;;;2.03;;
63818;SDS011;49970;54.976;73.248;2023-04-21T08:19:34;11.48;;;2.10;;
63818;SDS011;49970;54.976;73.248;2023-04-21T08:22:00;5.13;;;1.80;;
63818;SDS011;49970;54.976;73.248;2023-04-21T08:24:26;7.85;;;2.05;;
63818;SDS011;49970;54.976;73.248;2023-04-21T08:26:52;5.45;;;1.80;;
63818;SDS011;49970;54.976;73.248;2023-04-21T08:29:19;6.88;;;2.30;;
63818;SDS011;49970;54.976;73.248;2023-04-21T08:31:51;10.48;;;1.60;;
63818;SDS011;49970;54.976;73.248;2023-04-21T08:34:17;3.47;;;1.77;;
63818;SDS011;49970;54.976;73.248;2023-04-21T08:36:44;11.48;;;2.42;;
63818;SDS011;49970;54.976;73.248;2023-04-21T08:39:12;13.50;;;2.40;;
63818;SDS011;49970;54.976;73.248;2023-04-21T08:41:39;8.60;;;1.60;;
63818;SDS011;49970;54.976;73.248;2023-04-21T08:44:07;7.63;;;1.77;;
63818;SDS011;49970;54.976;73.248;2023-04-21T08:46:34;14.80;;;1.88;;
63818;SDS011;49970;54.976;73.248;2023-04-21T08:49:06;4.97;;;1.30;;
63818;SDS011;49970;54.976;73.248;2023-04-21T08:51:35;14.20;;;1.90;;
63818;SDS011;49970;54.976;73.248;2023-04-21T08:54:01;2.65;;;1.10;;
63818;SDS011;49970;54.976;73.248;2023-04-21T08:56:27;4.53;;;1.35;;
63818;SDS011;49970;54.976;73.248;2023-04-21T08:58:55;6.45;;;1.55;;
63818;SDS011;49970;54.976;73.248;2023-04-21T09:01:21;7.55;;;1.50;;
63818;SDS011;49970;54.976;73.248;2023-04-21T09:03:47;7.95;;;2.00;;
63818;SDS011;49970;54.976;73.248;2023-04-21T09:06:13;3.70;;;1.85;;
63818;SDS011;49970;54.976;73.248;2023-04-21T09:08:43;6.10;;;1.58;;
63818;SDS011;49970;54.976;73.248;2023-04-21T09:11:20;12.75;;;1.55;;
63818;SDS011;49970;54.976;73.248;2023-04-21T09:13:47;6.95;;;1.58;;
63818;SDS011;49970;54.976;73.248;2023-04-21T09:16:17;1.95;;;1.33;;
63818;SDS011;49970;54.976;73.248;2023-04-21T09:18:47;4.82;;;1.10;;
63818;SDS011;49970;54.976;73.248;2023-04-21T09:21:15;12.32;;;1.77;;
63818;SDS011;49970;54.976;73.248;2023-04-21T09:23:48;6.75;;;1.38;;
63818;SDS011;49970;54.976;73.248;2023-04-21T09:26:16;12.95;;;1.75;;
63818;SDS011;49970;54.976;73.248;2023-04-21T09:28:45;6.43;;;0.98;;
63818;SDS011;49970;54.976;73.248;2023-04-21T09:31:16;1.00;;;0.90;;
63818;SDS011;49970;54.976;73.248;2023-04-21T09:33:46;3.63;;;1.10;;
63818;SDS011;49970;54.976;73.248;2023-04-21T09:36:21;5.07;;;1.83;;
63818;SDS011;49970;54.976;73.248;2023-04-21T09:38:49;2.45;;;1.02;;
63818;SDS011;49970;54.976;73.248;2023-04-21T09:41:18;9.10;;;1.58;;
63818;SDS011;49970;54.976;73.248;2023-04-21T09:43:45;4.68;;;1.10;;
63818;SDS011;49970;54.976;73.248;2023-04-21T09:46:21;7.80;;;1.15;;
63818;SDS011;49970;54.976;73.248;2023-04-21T09:48:48;4.47;;;1.00;;
63818;SDS011;49970;54.976;73.248;2023-04-21T09:51:23;12.43;;;1.20;;
63818;SDS011;49970;54.976;73.248;2023-04-21T09:53:52;1.33;;;0.80;;
63818;SDS011;49970;54.976;73.248;2023-04-21T09:56:23;19.98;;;1.42;;
63818;SDS011;49970;54.976;73.248;2023-04-21T09:58:54;17.35;;;1.98;;
63818;SDS011;49970;54.976;73.248;2023-04-21T10:01:25;2.67;;;1.23;;
63818;SDS011;49970;54.976;73.248;2023-04-21T10:03:54;7.95;;;1.25;;
63818;SDS011;49970;54.976;73.248;2023-04-21T10:06:31;11.07;;;1.25;;
63818;SDS011;49970;54.976;73.248;2023-04-21T10:09:03;2.45;;;1.10;;
63818;SDS011;49970;54.976;73.248;2023-04-21T10:11:32;2.25;;;1.05;;
63818;SDS011;49970;54.976;73.248;2023-04-21T10:14:00;2.47;;;1.17;;
63818;SDS011;49970;54.976;73.248;2023-04-21T10:16:26;3.83;;;1.20;;
63818;SDS011;49970;54.976;73.248;2023-04-21T10:18:53;3.60;;;1.13;;
63818;SDS011;49970;54.976;73.248;2023-04-21T10:21:20;4.43;;;1.25;;
63818;SDS011;49970;54.976;73.248;2023-04-21T10:23:47;10.15;;;1.40;;
63818;SDS011;49970;54.976;73.248;2023-04-21T10:26:22;10.77;;;1.20;;
63818;SDS011;49970;54.976;73.248;2023-04-21T10:28:55;11.40;;;0.98;;
63818;SDS011;49970;54.976;73.248;2023-04-21T10:34:12;6.95;;;1.50;;
63818;SDS011;49970;54.976;73.248;2023-04-21T10:39:23;7.28;;;2.63;;
63818;SDS011;49970;54.976;73.248;2023-04-21T10:41:51;10.98;;;2.90;;
63818;SDS011;49970;54.976;73.248;2023-04-21T10:44:21;24.63;;;2.30;;
63818;SDS011;49970;54.976;73.248;2023-04-21T10:46:51;15.70;;;1.65;;
63818;SDS011;49970;54.976;73.248;2023-04-21T10:49:27;8.88;;;1.20;;
63818;SDS011;49970;54.976;73.248;2023-04-21T10:54:37;5.07;;;1.52;;
63818;SDS011;49970;54.976;73.248;2023-04-21T10:57:15;20.23;;;1.55;;
63818;SDS011;49970;54.976;73.248;2023-04-21T11:00:16;14.03;;;1.63;;
63818;SDS011;49970;54.976;73.248;2023-04-21T11:02:54;12.73;;;1.70;;
63818;SDS011;49970;54.976;73.248;2023-04-21T11:05:28;5.20;;;1.60;;
63818;SDS011;49970;54.976;73.248;2023-04-21T11:08:10;18.63;;;6.70;;
63818;SDS011;49970;54.976;73.248;2023-04-21T11:10:42;12.07;;;2.13;;
63818;SDS011;49970;54.976;73.248;2023-04-21T11:13:25;8.48;;;1.70;;
63818;SDS011;49970;54.976;73.248;2023-04-21T11:16:04;6.72;;;1.10;;
63818;SDS011;49970;54.976;73.248;2023-04-21T11:18:32;11.32;;;1.63;;
63818;SDS011;49970;54.976;73.248;2023-04-21T11:21:12;13.75;;;1.55;;
63818;SDS011;49970;54.976;73.248;2023-04-21T11:23:52;4.22;;;1.20;;
63818;SDS011;49970;54.976;73.248;2023-04-21T11:26:33;1.20;;;1.10;;
63818;SDS011;49970;54.976;73.248;2023-04-21T11:29:06;2.20;;;1.23;;
63818;SDS011;49970;54.976;73.248;2023-04-21T11:31:35;7.93;;;0.98;;
63818;SDS011;49970;54.976;73.248;2023-04-21T11:34:02;5.40;;;1.90;;
63818;SDS011;49970;54.976;73.248;2023-04-21T11:36:39;9.23;;;1.50;;
63818;SDS011;49970;54.976;73.248;2023-04-21T11:39:07;2.95;;;1.33;;
63818;SDS011;49970;54.976;73.248;2023-04-21T11:41:39;15.57;;;1.20;;
63818;SDS011;49970;54.976;73.248;2023-04-21T11:44:10;5.70;;;1.10;;
63818;SDS011;49970;54.976;73.248;2023-04-21T11:46:43;15.38;;;2.08;;
63818;SDS011;49970;54.976;73.248;2023-04-21T11:49:11;15.63;;;3.40;;
63818;SDS011;49970;54.976;73.248;2023-04-21T11:54:09;7.35;;;2.28;;
63818;SDS011;49970;54.976;73.248;2023-04-21T11:56:39;7.90;;;1.27;;
63818;SDS011;49970;54.976;73.248;2023-04-21T11:59:08;2.60;;;1.10;;
63818;SDS011;49970;54.976;73.248;2023-04-21T12:02:11;7.72;;;1.60;;
63818;SDS011;49970;54.976;73.248;2023-04-21T12:04:28;6.53;;;1.20;;
63818;SDS011;49970;54.976;73.248;2023-04-21T12:07:01;9.90;;;1.83;;
63818;SDS011;49970;54.976;73.248;2023-04-21T12:12:04;9.23;;;2.53;;
63818;SDS011;49970;54.976;73.248;2023-04-21T12:14:31;14.30;;;2.28;;
63818;SDS011;49970;54.976;73.248;2023-04-21T12:16:58;3.38;;;2.03;;
63818;SDS011;49970;54.976;73.248;2023-04-21T12:19:34;4.43;;;1.33;;
63818;SDS011;49970;54.976;73.248;2023-04-21T12:22:00;6.22;;;1.73;;
63818;SDS011;49970;54.976;73.248;2023-04-21T12:24:27;5.80;;;1.58;;
63818;SDS011;49970;54.976;73.248;2023-04-21T12:26:53;9.73;;;2.33;;
63818;SDS011;49970;54.976;73.248;2023-04-21T12:29:19;24.55;;;14.07;;
63818;SDS011;49970;54.976;73.248;2023-04-21T12:31:45;17.17;;;8.90;;
63818;SDS011;49970;54.976;73.248;2023-04-21T12:34:12;31.38;;;6.43;;
63818;SDS011;49970;54.976;73.248;2023-04-21T12:36:38;16.52;;;5.72;;
63818;SDS011;49970;54.976;73.248;2023-04-21T12:39:04;13.63;;;5.38;;
63818;SDS011;49970;54.976;73.248;2023-04-21T12:41:35;17.25;;;3.10;;
63818;SDS011;49970;54.976;73.248;2023-04-21T12:44:06;9.52;;;2.40;;
63818;SDS011;49970;54.976;73.248;2023-04-21T12:46:32;2.42;;;1.40;;
63818;SDS011;49970;54.976;73.248;2023-04-21T12:49:04;4.60;;;1.70;;
63818;SDS011;49970;54.976;73.248;2023-04-21T12:51:32;17.35;;;1.90;;
63818;SDS011;49970;54.976;73.248;2023-04-21T12:53:59;4.25;;;2.05;;
63818;SDS011;49970;54.976;73.248;2023-04-21T12:56:25;3.85;;;2.28;;
63818;SDS011;49970;54.976;73.248;2023-04-21T12:58:52;5.22;;;2.58;;
63818;SDS011;49970;54.976;73.248;2023-04-21T13:01:20;6.95;;;2.78;;
63818;SDS011;49970;54.976;73.248;2023-04-21T13:03:46;4.47;;;2.15;;
63818;SDS011;49970;54.976;73.248;2023-04-21T13:06:12;5.43;;;2.28;;
63818;SDS011;49970;54.976;73.248;2023-04-21T13:08:39;4.35;;;2.20;;
63818;SDS011;49970;54.976;73.248;2023-04-21T13:11:05;7.93;;;2.33;;
63818;SDS011;49970;54.976;73.248;2023-04-21T13:13:31;5.40;;;2.03;;
63818;SDS011;49970;54.976;73.248;2023-04-21T13:16:03;9.30;;;3.60;;
63818;SDS011;49970;54.976;73.248;2023-04-21T13:18:30;8.50;;;4.00;;
63818;SDS011;49970;54.976;73.248;2023-04-21T13:20:59;13.82;;;2.55;;
63818;SDS011;49970;54.976;73.248;2023-04-21T13:23:26;8.40;;;3.28;;
63818;SDS011;49970;54.976;73.248;2023-04-21T13:25:53;4.53;;;1.98;;
63818;SDS011;49970;54.976;73.248;2023-04-21T13:28:19;4.93;;;2.20;;
63818;SDS011;49970;54.976;73.248;2023-04-21T13:30:46;21.42;;;3.13;;
63818;SDS011;49970;54.976;73.248;2023-04-21T13:33:12;6.18;;;3.17;;
63818;SDS011;49970;54.976;73.248;2023-04-21T13:35:38;4.97;;;2.85;;
63818;SDS011;49970;54.976;73.248;2023-04-21T13:38:05;6.25;;;3.35;;
63818;SDS011;49970;54.976;73.248;2023-04-21T13:40:31;13.75;;;4.10;;
63818;SDS011;49970;54.976;73.248;2023-04-21T13:42:59;12.10;;;5.47;;
63818;SDS011;49970;54.976;73.248;2023-04-21T13:45:25;12.27;;;8.38;;
63818;SDS011;49970;54.976;73.248;2023-04-21T13:47:51;16.70;;;6.22;;
63818;SDS011;49970;54.976;73.248;2023-04-21T13:50:18;13.65;;;6.25;;
63818;SDS011;49970;54.976;73.248;2023-04-21T13:52:55;11.45;;;5.78;;
63818;SDS011;49970;54.976;73.248;2023-04-21T13:55:21;20.58;;;6.55;;
63818;SDS011;49970;54.976;73.248;2023-04-21T13:57:48;18.27;;;6.40;;
63818;SDS011;49970;54.976;73.248;2023-04-21T14:00:14;21.15;;;8.68;;
63818;SDS011;49970;54.976;73.248;2023-04-21T14:02:41;32.80;;;10.88;;
63818;SDS011;49970;54.976;73.248;2023-04-21T14:05:07;22.25;;;10.75;;
63818;SDS011;49970;54.976;73.248;2023-04-21T14:07:33;22.02;;;9.43;;
63818;SDS011;49970;54.976;73.248;2023-04-21T14:10:00;27.05;;;10.63;;
63818;SDS011;49970;54.976;73.248;2023-04-21T14:12:27;25.13;;;10.02;;
63818;SDS011;49970;54.976;73.248;2023-04-21T14:14:53;25.67;;;11.93;;
63818;SDS011;49970;54.976;73.248;2023-04-21T14:17:19;24.40;;;12.57;;
63818;SDS011;49970;54.976;73.248;2023-04-21T14:19:47;30.77;;;14.32;;
63818;SDS011;49970;54.976;73.248;2023-04-21T14:22:14;31.77;;;14.40;;
63818;SDS011;49970;54.976;73.248;2023-04-21T14:24:45;45.40;;;15.52;;
63818;SDS011;49970;54.976;73.248;2023-04-21T14:27:11;55.92;;;17.65;;
63818;SDS011;49970;54.976;73.248;2023-04-21T14:29:37;72.45;;;18.95;;
63818;SDS011;49970;54.976;73.248;2023-04-21T14:32:04;71.82;;;20.48;;
63818;SDS011;49970;54.976;73.248;2023-04-21T14:34:35;62.13;;;20.48;;
63818;SDS011;49970;54.976;73.248;2023-04-21T14:37:01;68.53;;;21.83;;
63818;SDS011;49970;54.976;73.248;2023-04-21T14:39:28;64.82;;;20.73;;
63818;SDS011;49970;54.976;73.248;2023-04-21T14:41:59;79.35;;;23.83;;
63818;SDS011;49970;54.976;73.248;2023-04-21T14:44:26;65.88;;;23.88;;
63818;SDS011;49970;54.976;73.248;2023-04-21T14:46:52;63.65;;;23.63;;
63818;SDS011;49970;54.976;73.248;2023-04-21T14:49:19;94.22;;;23.30;;
63818;SDS011;49970;54.976;73.248;2023-04-21T14:51:45;73.65;;;22.70;;
63818;SDS011;49970;54.976;73.248;2023-04-21T14:54:14;67.28;;;20.70;;
63818;SDS011;49970;54.976;73.248;2023-04-21T14:56:41;65.95;;;19.05;;
63818;SDS011;49970;54.976;73.248;2023-04-21T14:59:17;58.13;;;19.88;;